Terminal Aerodrome Forecast
Issued by NWS

Home | Current Version | Previous Version | Text Only | Print | Product List | Glossary Off
Versions: 1 2 3 4 5 6 7 8 9 10 11 12 13

000
FTUS42 KMHX 072334
TAFISO
TAF
KISO 072334Z 0800/0824 00000KT P6SM FEW250
     FM080500 00000KT P6SM BKN080
     FM080800 00000KT P6SM BKN025
     FM081500 23005KT P6SM BKN025
     FM081700 29010KT P6SM BKN025
     FM081800 31010KT P6SM OVC050
      AMD LTD TO VIS AND WIND=

USA.gov is the U.S. government's official web portal to all federal, state and local government web resources and services.